Startpagina
METAR-TAF:

METAR-TAF

Vliegvelden :

Koeweit, Koeweit

breedte: 29-13N, lengte: 047-59E, hoogte: 55 m

Actueel weer

Dit bericht is 1 uur en het 3 minuten geleden gemaakt, om 15:00 UTC
Wind 6 kt uit het oostzuidoosten
Temperatuur 32°C
Vochtigheid 41%
Druk 1011 hPa
Zicht 10 km of meer
geen wolken onder 1500 m en geen cumulonimbus

METAR: OKBK 171500Z 11006KT CAVOK 32/17 Q1011 NOSIG

Tijdstip: 19:03 (16:03 UTC)

Verwachting

Dit bericht is 5 uur en het 18 minuten geleden gemaakt, om 10:45 UTC
Verwachting geldig van 17 om 12 UTC tot 18 om 18 UTC
Wind 3 kt uit variabele richting
Zicht: 6000 m
Tijdelijke
van 17 om 12 UTC tot 17 om 15 UTC
Zicht: 4000 m
Heiigheid
Tijdelijke
van 17 om 15 UTC tot 18 om 03 UTC
Wind 8 kt uit het zuiden

TAF: OKBK 171045Z 1712/1818 VRB03KT 6000 NSC TEMPO 1712/1715 4000 HZ TEMPO 1715/1803 19008KT

Waarnemingen en weersverwachtingen van meer dan 4000 vliegvelden (METAR en TAF).

De beschikbare stations zijn de gele en rode punten op de kaart.

Ga met uw muis naar het station om de naam te zien.

Klik dan om waarnemingen en weersverwachtingen te zien.

kaart wijzigen: klik op de groene knoppen met een zwart kruis om in te zoomen, op de groene knop met een streepje om uit te zoomen of op de groene pijlen voor aangrenzende kaarten.


METAR-TAF: